sensor_id;sensor_type;location;lat;lon;timestamp;temperature;humidity
62573;DHT22;48626;51.678;5.806;2022-08-21T00:00:16;16.50;79.80
62573;DHT22;48626;51.678;5.806;2022-08-21T00:02:55;16.50;80.00
62573;DHT22;48626;51.678;5.806;2022-08-21T00:05:22;16.40;80.20
62573;DHT22;48626;51.678;5.806;2022-08-21T00:07:48;16.40;80.50
62573;DHT22;48626;51.678;5.806;2022-08-21T00:10:14;16.40;80.70
62573;DHT22;48626;51.678;5.806;2022-08-21T00:12:42;16.40;80.90
62573;DHT22;48626;51.678;5.806;2022-08-21T00:15:12;16.40;81.10
62573;DHT22;48626;51.678;5.806;2022-08-21T00:17:38;16.40;81.10
62573;DHT22;48626;51.678;5.806;2022-08-21T00:20:06;16.40;81.10
62573;DHT22;48626;51.678;5.806;2022-08-21T00:22:33;16.30;81.10
62573;DHT22;48626;51.678;5.806;2022-08-21T00:24:59;16.30;81.40
62573;DHT22;48626;51.678;5.806;2022-08-21T00:27:25;16.30;81.50
62573;DHT22;48626;51.678;5.806;2022-08-21T00:29:50;16.20;81.50
62573;DHT22;48626;51.678;5.806;2022-08-21T00:32:22;16.20;81.70
62573;DHT22;48626;51.678;5.806;2022-08-21T00:34:48;16.10;82.00
62573;DHT22;48626;51.678;5.806;2022-08-21T00:37:13;16.10;83.00
62573;DHT22;48626;51.678;5.806;2022-08-21T00:39:39;16.10;82.30
62573;DHT22;48626;51.678;5.806;2022-08-21T00:42:05;16.00;82.40
62573;DHT22;48626;51.678;5.806;2022-08-21T00:44:31;16.00;82.60
62573;DHT22;48626;51.678;5.806;2022-08-21T00:46:57;16.00;82.70
62573;DHT22;48626;51.678;5.806;2022-08-21T00:49:22;16.00;82.90
62573;DHT22;48626;51.678;5.806;2022-08-21T00:51:57;16.00;83.80
62573;DHT22;48626;51.678;5.806;2022-08-21T00:54:26;15.90;82.90
62573;DHT22;48626;51.678;5.806;2022-08-21T00:56:58;15.90;83.00
62573;DHT22;48626;51.678;5.806;2022-08-21T00:59:26;15.90;83.10
62573;DHT22;48626;51.678;5.806;2022-08-21T01:01:53;15.80;83.10
62573;DHT22;48626;51.678;5.806;2022-08-21T01:04:19;15.80;83.20
62573;DHT22;48626;51.678;5.806;2022-08-21T01:06:46;15.80;83.40
62573;DHT22;48626;51.678;5.806;2022-08-21T01:09:13;15.70;83.40
62573;DHT22;48626;51.678;5.806;2022-08-21T01:11:39;15.70;83.50
62573;DHT22;48626;51.678;5.806;2022-08-21T01:14:07;15.70;83.60
62573;DHT22;48626;51.678;5.806;2022-08-21T01:16:33;15.70;83.60
62573;DHT22;48626;51.678;5.806;2022-08-21T01:18:58;15.70;83.70
62573;DHT22;48626;51.678;5.806;2022-08-21T01:21:26;15.60;83.70
62573;DHT22;48626;51.678;5.806;2022-08-21T01:23:53;15.60;83.70
62573;DHT22;48626;51.678;5.806;2022-08-21T01:26:25;15.50;83.90
62573;DHT22;48626;51.678;5.806;2022-08-21T01:28:59;15.50;84.00
62573;DHT22;48626;51.678;5.806;2022-08-21T01:31:27;15.50;84.10
62573;DHT22;48626;51.678;5.806;2022-08-21T01:33:54;15.50;84.20
62573;DHT22;48626;51.678;5.806;2022-08-21T01:36:20;15.50;84.20
62573;DHT22;48626;51.678;5.806;2022-08-21T01:38:46;15.50;84.30
62573;DHT22;48626;51.678;5.806;2022-08-21T01:41:13;15.40;84.20
62573;DHT22;48626;51.678;5.806;2022-08-21T01:43:40;15.40;84.10
62573;DHT22;48626;51.678;5.806;2022-08-21T01:46:05;15.40;84.20
62573;DHT22;48626;51.678;5.806;2022-08-21T01:48:31;15.30;84.30
62573;DHT22;48626;51.678;5.806;2022-08-21T01:50:57;15.30;84.50
62573;DHT22;48626;51.678;5.806;2022-08-21T01:53:23;15.30;84.60
62573;DHT22;48626;51.678;5.806;2022-08-21T01:55:48;15.30;84.70
62573;DHT22;48626;51.678;5.806;2022-08-21T01:58:14;15.30;84.90
62573;DHT22;48626;51.678;5.806;2022-08-21T02:00:40;15.20;85.00
62573;DHT22;48626;51.678;5.806;2022-08-21T02:03:06;15.20;85.30
62573;DHT22;48626;51.678;5.806;2022-08-21T02:05:32;15.20;85.40
62573;DHT22;48626;51.678;5.806;2022-08-21T02:07:58;15.10;85.40
62573;DHT22;48626;51.678;5.806;2022-08-21T02:10:28;15.10;85.60
62573;DHT22;48626;51.678;5.806;2022-08-21T02:12:55;15.10;85.80
62573;DHT22;48626;51.678;5.806;2022-08-21T02:15:21;15.10;85.90
62573;DHT22;48626;51.678;5.806;2022-08-21T02:17:52;15.10;86.00
62573;DHT22;48626;51.678;5.806;2022-08-21T02:20:34;15.10;86.20
62573;DHT22;48626;51.678;5.806;2022-08-21T02:23:00;15.10;86.30
62573;DHT22;48626;51.678;5.806;2022-08-21T02:25:27;15.00;86.40
62573;DHT22;48626;51.678;5.806;2022-08-21T02:27:54;15.00;86.50
62573;DHT22;48626;51.678;5.806;2022-08-21T02:30:26;15.00;86.70
62573;DHT22;48626;51.678;5.806;2022-08-21T02:32:52;15.00;86.80
62573;DHT22;48626;51.678;5.806;2022-08-21T02:35:18;15.00;86.90
62573;DHT22;48626;51.678;5.806;2022-08-21T02:37:53;14.90;87.00
62573;DHT22;48626;51.678;5.806;2022-08-21T02:40:23;15.00;87.30
62573;DHT22;48626;51.678;5.806;2022-08-21T02:42:49;14.90;87.30
62573;DHT22;48626;51.678;5.806;2022-08-21T02:45:16;14.90;87.40
62573;DHT22;48626;51.678;5.806;2022-08-21T02:48:00;14.90;87.60
62573;DHT22;48626;51.678;5.806;2022-08-21T02:50:32;14.90;87.70
62573;DHT22;48626;51.678;5.806;2022-08-21T02:52:58;14.90;87.80
62573;DHT22;48626;51.678;5.806;2022-08-21T02:55:27;14.80;87.90
62573;DHT22;48626;51.678;5.806;2022-08-21T02:57:54;14.80;88.10
62573;DHT22;48626;51.678;5.806;2022-08-21T03:00:21;14.80;88.30
62573;DHT22;48626;51.678;5.806;2022-08-21T03:02:48;14.90;88.30
62573;DHT22;48626;51.678;5.806;2022-08-21T03:05:15;14.80;88.40
62573;DHT22;48626;51.678;5.806;2022-08-21T03:07:42;14.80;88.40
62573;DHT22;48626;51.678;5.806;2022-08-21T03:10:09;14.80;88.50
62573;DHT22;48626;51.678;5.806;2022-08-21T03:12:35;14.80;88.60
62573;DHT22;48626;51.678;5.806;2022-08-21T03:15:05;14.80;88.70
62573;DHT22;48626;51.678;5.806;2022-08-21T03:17:32;14.70;88.70
62573;DHT22;48626;51.678;5.806;2022-08-21T03:19:59;14.70;88.70
62573;DHT22;48626;51.678;5.806;2022-08-21T03:22:25;14.70;88.90
62573;DHT22;48626;51.678;5.806;2022-08-21T03:24:51;14.70;89.90
62573;DHT22;48626;51.678;5.806;2022-08-21T03:27:17;14.60;89.10
62573;DHT22;48626;51.678;5.806;2022-08-21T03:29:43;14.60;89.30
62573;DHT22;48626;51.678;5.806;2022-08-21T03:32:09;14.60;89.30
62573;DHT22;48626;51.678;5.806;2022-08-21T03:34:35;14.60;89.40
62573;DHT22;48626;51.678;5.806;2022-08-21T03:37:02;14.60;89.60
62573;DHT22;48626;51.678;5.806;2022-08-21T03:39:29;14.50;89.60
62573;DHT22;48626;51.678;5.806;2022-08-21T03:41:55;14.50;89.60
62573;DHT22;48626;51.678;5.806;2022-08-21T03:44:20;14.50;89.70
62573;DHT22;48626;51.678;5.806;2022-08-21T03:46:46;14.50;89.80
62573;DHT22;48626;51.678;5.806;2022-08-21T03:49:12;14.50;89.90
62573;DHT22;48626;51.678;5.806;2022-08-21T03:51:38;14.50;89.90
62573;DHT22;48626;51.678;5.806;2022-08-21T03:54:04;14.50;89.90
62573;DHT22;48626;51.678;5.806;2022-08-21T03:56:30;14.40;89.90
62573;DHT22;48626;51.678;5.806;2022-08-21T03:58:56;14.40;90.00
62573;DHT22;48626;51.678;5.806;2022-08-21T04:01:22;14.30;90.00
62573;DHT22;48626;51.678;5.806;2022-08-21T04:03:47;14.40;90.10
62573;DHT22;48626;51.678;5.806;2022-08-21T04:06:13;14.30;90.10
62573;DHT22;48626;51.678;5.806;2022-08-21T04:08:38;14.30;90.20
62573;DHT22;48626;51.678;5.806;2022-08-21T04:11:05;14.30;90.10
62573;DHT22;48626;51.678;5.806;2022-08-21T04:13:31;14.30;90.20
62573;DHT22;48626;51.678;5.806;2022-08-21T04:15:57;14.30;90.20
62573;DHT22;48626;51.678;5.806;2022-08-21T04:18:25;14.20;90.20
62573;DHT22;48626;51.678;5.806;2022-08-21T04:20:52;14.20;90.20
62573;DHT22;48626;51.678;5.806;2022-08-21T04:23:19;14.10;90.20
62573;DHT22;48626;51.678;5.806;2022-08-21T04:25:45;14.10;90.20
62573;DHT22;48626;51.678;5.806;2022-08-21T04:28:11;14.10;90.20
62573;DHT22;48626;51.678;5.806;2022-08-21T04:30:37;14.00;90.30
62573;DHT22;48626;51.678;5.806;2022-08-21T04:33:03;14.00;90.30
62573;DHT22;48626;51.678;5.806;2022-08-21T04:35:29;13.90;90.30
62573;DHT22;48626;51.678;5.806;2022-08-21T04:37:56;13.90;90.40
62573;DHT22;48626;51.678;5.806;2022-08-21T04:40:23;14.00;90.50
62573;DHT22;48626;51.678;5.806;2022-08-21T04:42:56;13.90;90.50
62573;DHT22;48626;51.678;5.806;2022-08-21T04:45:25;13.90;90.60
62573;DHT22;48626;51.678;5.806;2022-08-21T04:47:52;14.00;90.70
62573;DHT22;48626;51.678;5.806;2022-08-21T04:50:20;13.90;90.70
62573;DHT22;48626;51.678;5.806;2022-08-21T04:52:47;13.90;90.70
62573;DHT22;48626;51.678;5.806;2022-08-21T04:55:15;13.90;90.70
62573;DHT22;48626;51.678;5.806;2022-08-21T04:57:42;13.90;90.80
62573;DHT22;48626;51.678;5.806;2022-08-21T05:00:08;13.90;90.80
62573;DHT22;48626;51.678;5.806;2022-08-21T05:02:36;13.90;91.30
62573;DHT22;48626;51.678;5.806;2022-08-21T05:05:03;13.90;90.90
62573;DHT22;48626;51.678;5.806;2022-08-21T05:07:30;13.90;91.00
62573;DHT22;48626;51.678;5.806;2022-08-21T05:09:56;13.90;91.10
62573;DHT22;48626;51.678;5.806;2022-08-21T05:12:22;13.90;91.10
62573;DHT22;48626;51.678;5.806;2022-08-21T05:14:48;13.90;91.20
62573;DHT22;48626;51.678;5.806;2022-08-21T05:17:14;13.90;91.30
62573;DHT22;48626;51.678;5.806;2022-08-21T05:19:40;14.00;91.60
62573;DHT22;48626;51.678;5.806;2022-08-21T05:22:06;14.00;91.70
62573;DHT22;48626;51.678;5.806;2022-08-21T05:24:32;14.10;91.90
62573;DHT22;48626;51.678;5.806;2022-08-21T05:26:58;14.20;92.10
62573;DHT22;48626;51.678;5.806;2022-08-21T05:29:24;14.20;91.80
62573;DHT22;48626;51.678;5.806;2022-08-21T05:31:50;14.30;91.90
62573;DHT22;48626;51.678;5.806;2022-08-21T05:34:21;14.30;92.10
62573;DHT22;48626;51.678;5.806;2022-08-21T05:36:47;14.40;92.10
62573;DHT22;48626;51.678;5.806;2022-08-21T05:39:13;14.50;92.10
62573;DHT22;48626;51.678;5.806;2022-08-21T05:41:39;14.60;92.10
62573;DHT22;48626;51.678;5.806;2022-08-21T05:44:05;14.70;92.20
62573;DHT22;48626;51.678;5.806;2022-08-21T05:46:30;14.80;92.10
62573;DHT22;48626;51.678;5.806;2022-08-21T05:48:56;14.90;92.10
62573;DHT22;48626;51.678;5.806;2022-08-21T05:51:22;15.00;92.10
62573;DHT22;48626;51.678;5.806;2022-08-21T05:53:48;15.10;92.20
62573;DHT22;48626;51.678;5.806;2022-08-21T05:56:14;15.10;92.20
62573;DHT22;48626;51.678;5.806;2022-08-21T05:58:40;15.20;92.20
62573;DHT22;48626;51.678;5.806;2022-08-21T06:01:06;15.30;92.30
62573;DHT22;48626;51.678;5.806;2022-08-21T06:03:35;15.40;92.20
62573;DHT22;48626;51.678;5.806;2022-08-21T06:06:01;15.40;92.30
62573;DHT22;48626;51.678;5.806;2022-08-21T06:08:28;15.60;92.30
62573;DHT22;48626;51.678;5.806;2022-08-21T06:10:56;15.70;92.60
62573;DHT22;48626;51.678;5.806;2022-08-21T06:13:23;15.80;92.70
62573;DHT22;48626;51.678;5.806;2022-08-21T06:15:49;16.00;92.80
62573;DHT22;48626;51.678;5.806;2022-08-21T06:18:16;16.20;92.50
62573;DHT22;48626;51.678;5.806;2022-08-21T06:20:42;16.40;92.30
62573;DHT22;48626;51.678;5.806;2022-08-21T06:23:08;16.40;91.70
62573;DHT22;48626;51.678;5.806;2022-08-21T06:25:33;16.50;91.60
62573;DHT22;48626;51.678;5.806;2022-08-21T06:28:08;16.60;91.50
62573;DHT22;48626;51.678;5.806;2022-08-21T06:30:35;16.60;91.30
62573;DHT22;48626;51.678;5.806;2022-08-21T06:33:02;16.70;91.20
62573;DHT22;48626;51.678;5.806;2022-08-21T06:35:28;16.70;91.30
62573;DHT22;48626;51.678;5.806;2022-08-21T06:37:55;16.80;91.20
62573;DHT22;48626;51.678;5.806;2022-08-21T06:40:21;16.80;91.30
62573;DHT22;48626;51.678;5.806;2022-08-21T06:42:47;16.80;91.40
62573;DHT22;48626;51.678;5.806;2022-08-21T06:45:13;16.90;91.10
62573;DHT22;48626;51.678;5.806;2022-08-21T06:47:39;16.90;91.20
62573;DHT22;48626;51.678;5.806;2022-08-21T06:50:05;17.00;91.10
62573;DHT22;48626;51.678;5.806;2022-08-21T06:52:36;17.00;91.20
62573;DHT22;48626;51.678;5.806;2022-08-21T06:55:05;17.10;91.20
62573;DHT22;48626;51.678;5.806;2022-08-21T06:57:31;17.20;91.20
62573;DHT22;48626;51.678;5.806;2022-08-21T06:59:56;17.30;91.10
62573;DHT22;48626;51.678;5.806;2022-08-21T07:02:22;17.40;91.10
62573;DHT22;48626;51.678;5.806;2022-08-21T07:04:48;17.50;91.10
62573;DHT22;48626;51.678;5.806;2022-08-21T07:07:14;17.60;91.00
62573;DHT22;48626;51.678;5.806;2022-08-21T07:09:39;17.70;90.80
62573;DHT22;48626;51.678;5.806;2022-08-21T07:12:05;17.80;90.90
62573;DHT22;48626;51.678;5.806;2022-08-21T07:14:31;17.90;90.90
62573;DHT22;48626;51.678;5.806;2022-08-21T07:16:57;17.90;90.60
62573;DHT22;48626;51.678;5.806;2022-08-21T07:19:23;18.00;90.60
62573;DHT22;48626;51.678;5.806;2022-08-21T07:21:48;18.10;90.70
62573;DHT22;48626;51.678;5.806;2022-08-21T07:24:14;18.20;90.60
62573;DHT22;48626;51.678;5.806;2022-08-21T07:26:40;18.30;90.40
62573;DHT22;48626;51.678;5.806;2022-08-21T07:29:06;18.30;90.30
62573;DHT22;48626;51.678;5.806;2022-08-21T07:31:32;18.50;90.20
62573;DHT22;48626;51.678;5.806;2022-08-21T07:33:57;18.50;90.00
62573;DHT22;48626;51.678;5.806;2022-08-21T07:36:23;18.70;90.20
62573;DHT22;48626;51.678;5.806;2022-08-21T07:38:49;18.90;89.70
62573;DHT22;48626;51.678;5.806;2022-08-21T07:41:23;19.00;89.70
62573;DHT22;48626;51.678;5.806;2022-08-21T07:43:50;19.30;89.60
62573;DHT22;48626;51.678;5.806;2022-08-21T07:46:15;19.40;89.20
62573;DHT22;48626;51.678;5.806;2022-08-21T07:48:41;19.60;88.90
62573;DHT22;48626;51.678;5.806;2022-08-21T07:51:11;19.70;88.20
62573;DHT22;48626;51.678;5.806;2022-08-21T07:53:37;19.90;87.90
62573;DHT22;48626;51.678;5.806;2022-08-21T07:56:05;20.00;87.90
62573;DHT22;48626;51.678;5.806;2022-08-21T07:58:31;20.00;86.40
62573;DHT22;48626;51.678;5.806;2022-08-21T08:00:57;19.90;86.70
62573;DHT22;48626;51.678;5.806;2022-08-21T08:03:24;20.00;86.70
62573;DHT22;48626;51.678;5.806;2022-08-21T08:05:50;20.10;86.70
62573;DHT22;48626;51.678;5.806;2022-08-21T08:08:16;20.20;87.00
62573;DHT22;48626;51.678;5.806;2022-08-21T08:10:42;20.20;86.30
62573;DHT22;48626;51.678;5.806;2022-08-21T08:13:08;20.20;86.40
62573;DHT22;48626;51.678;5.806;2022-08-21T08:15:35;20.30;85.80
62573;DHT22;48626;51.678;5.806;2022-08-21T08:18:01;20.30;85.20
62573;DHT22;48626;51.678;5.806;2022-08-21T08:20:26;20.40;86.00
62573;DHT22;48626;51.678;5.806;2022-08-21T08:22:53;20.40;85.80
62573;DHT22;48626;51.678;5.806;2022-08-21T08:25:20;20.50;86.00
62573;DHT22;48626;51.678;5.806;2022-08-21T08:27:46;20.60;85.10
62573;DHT22;48626;51.678;5.806;2022-08-21T08:30:14;20.70;85.00
62573;DHT22;48626;51.678;5.806;2022-08-21T08:32:40;20.80;84.00
62573;DHT22;48626;51.678;5.806;2022-08-21T08:35:07;20.90;82.90
62573;DHT22;48626;51.678;5.806;2022-08-21T08:37:34;21.00;83.80
62573;DHT22;48626;51.678;5.806;2022-08-21T08:40:00;21.20;83.30
62573;DHT22;48626;51.678;5.806;2022-08-21T08:42:34;21.30;82.80
62573;DHT22;48626;51.678;5.806;2022-08-21T08:45:08;21.40;81.70
62573;DHT22;48626;51.678;5.806;2022-08-21T08:47:40;21.50;81.80
62573;DHT22;48626;51.678;5.806;2022-08-21T08:50:19;21.50;80.60
62573;DHT22;48626;51.678;5.806;2022-08-21T08:53:02;21.60;80.40
62573;DHT22;48626;51.678;5.806;2022-08-21T08:55:41;21.80;80.60
62573;DHT22;48626;51.678;5.806;2022-08-21T08:58:22;21.90;79.60
62573;DHT22;48626;51.678;5.806;2022-08-21T09:00:50;22.10;80.70
62573;DHT22;48626;51.678;5.806;2022-08-21T09:03:16;22.30;79.10
62573;DHT22;48626;51.678;5.806;2022-08-21T09:05:47;22.40;78.50
62573;DHT22;48626;51.678;5.806;2022-08-21T09:10:54;22.60;76.50
62573;DHT22;48626;51.678;5.806;2022-08-21T09:19:35;22.60;75.80
62573;DHT22;48626;51.678;5.806;2022-08-21T09:25:11;22.40;76.00
62573;DHT22;48626;51.678;5.806;2022-08-21T09:27:37;22.30;74.00
62573;DHT22;48626;51.678;5.806;2022-08-21T09:30:05;22.40;76.90
62573;DHT22;48626;51.678;5.806;2022-08-21T09:32:34;22.40;75.80
62573;DHT22;48626;51.678;5.806;2022-08-21T09:37:31;22.30;76.20
62573;DHT22;48626;51.678;5.806;2022-08-21T09:39:57;22.40;75.80
62573;DHT22;48626;51.678;5.806;2022-08-21T09:42:32;22.50;75.10
62573;DHT22;48626;51.678;5.806;2022-08-21T09:45:15;22.70;73.90
62573;DHT22;48626;51.678;5.806;2022-08-21T09:47:41;22.80;74.70
62573;DHT22;48626;51.678;5.806;2022-08-21T09:50:12;22.90;73.20
62573;DHT22;48626;51.678;5.806;2022-08-21T09:52:45;23.10;74.40
62573;DHT22;48626;51.678;5.806;2022-08-21T09:55:20;23.20;71.20
62573;DHT22;48626;51.678;5.806;2022-08-21T09:58:13;23.30;71.00
62573;DHT22;48626;51.678;5.806;2022-08-21T10:00:39;23.60;72.80
62573;DHT22;48626;51.678;5.806;2022-08-21T10:03:15;23.80;74.30
62573;DHT22;48626;51.678;5.806;2022-08-21T10:05:56;24.00;73.70
62573;DHT22;48626;51.678;5.806;2022-08-21T10:08:24;24.20;73.10
62573;DHT22;48626;51.678;5.806;2022-08-21T10:10:53;24.40;71.70
62573;DHT22;48626;51.678;5.806;2022-08-21T10:16:40;24.50;69.30
62573;DHT22;48626;51.678;5.806;2022-08-21T10:19:30;24.80;71.30
62573;DHT22;48626;51.678;5.806;2022-08-21T10:25:36;25.30;68.00
62573;DHT22;48626;51.678;5.806;2022-08-21T10:30:36;25.70;68.30
62573;DHT22;48626;51.678;5.806;2022-08-21T10:36:20;25.90;63.60
62573;DHT22;48626;51.678;5.806;2022-08-21T10:38:57;26.30;63.20
62573;DHT22;48626;51.678;5.806;2022-08-21T10:47:02;26.20;60.70
62573;DHT22;48626;51.678;5.806;2022-08-21T10:49:48;26.20;59.00
62573;DHT22;48626;51.678;5.806;2022-08-21T10:55:16;26.20;58.40
62573;DHT22;48626;51.678;5.806;2022-08-21T10:57:54;25.90;58.80
62573;DHT22;48626;51.678;5.806;2022-08-21T11:00:29;25.90;59.30
62573;DHT22;48626;51.678;5.806;2022-08-21T11:03:04;26.40;60.00
62573;DHT22;48626;51.678;5.806;2022-08-21T11:05:46;26.90;60.70
62573;DHT22;48626;51.678;5.806;2022-08-21T11:08:31;27.30;58.30
62573;DHT22;48626;51.678;5.806;2022-08-21T11:11:10;27.20;54.50
62573;DHT22;48626;51.678;5.806;2022-08-21T11:16:22;27.50;59.80
62573;DHT22;48626;51.678;5.806;2022-08-21T11:22:08;28.00;56.00
62573;DHT22;48626;51.678;5.806;2022-08-21T11:24:48;27.70;55.40
62573;DHT22;48626;51.678;5.806;2022-08-21T11:29:56;27.70;56.00
62573;DHT22;48626;51.678;5.806;2022-08-21T11:34:58;28.50;58.30
62573;DHT22;48626;51.678;5.806;2022-08-21T11:37:37;29.00;59.00
62573;DHT22;48626;51.678;5.806;2022-08-21T11:43:42;29.80;56.20
62573;DHT22;48626;51.678;5.806;2022-08-21T11:46:14;30.20;56.40
62573;DHT22;48626;51.678;5.806;2022-08-21T11:51:57;29.90;51.50
62573;DHT22;48626;51.678;5.806;2022-08-21T11:54:38;30.20;56.00
62573;DHT22;48626;51.678;5.806;2022-08-21T11:57:29;30.50;52.10
62573;DHT22;48626;51.678;5.806;2022-08-21T12:02:38;30.20;52.80
62573;DHT22;48626;51.678;5.806;2022-08-21T12:05:09;30.50;52.60
62573;DHT22;48626;51.678;5.806;2022-08-21T12:07:41;30.70;49.60
62573;DHT22;48626;51.678;5.806;2022-08-21T12:10:15;31.00;47.80
62573;DHT22;48626;51.678;5.806;2022-08-21T12:12:43;31.40;50.80
62573;DHT22;48626;51.678;5.806;2022-08-21T12:17:58;31.90;50.30
62573;DHT22;48626;51.678;5.806;2022-08-21T12:28:29;33.30;51.50
62573;DHT22;48626;51.678;5.806;2022-08-21T12:30:56;32.20;47.00
62573;DHT22;48626;51.678;5.806;2022-08-21T12:33:35;31.70;45.60
62573;DHT22;48626;51.678;5.806;2022-08-21T12:36:18;32.10;50.90
62573;DHT22;48626;51.678;5.806;2022-08-21T12:39:04;32.80;50.00
62573;DHT22;48626;51.678;5.806;2022-08-21T12:42:06;33.30;50.70
62573;DHT22;48626;51.678;5.806;2022-08-21T12:44:53;33.80;47.90
62573;DHT22;48626;51.678;5.806;2022-08-21T12:47:43;34.00;45.60
62573;DHT22;48626;51.678;5.806;2022-08-21T12:50:17;34.30;46.00
62573;DHT22;48626;51.678;5.806;2022-08-21T12:52:53;34.30;43.30
62573;DHT22;48626;51.678;5.806;2022-08-21T12:55:29;34.80;44.10
62573;DHT22;48626;51.678;5.806;2022-08-21T12:57:55;35.30;42.30
62573;DHT22;48626;51.678;5.806;2022-08-21T13:00:25;35.60;42.20
62573;DHT22;48626;51.678;5.806;2022-08-21T13:02:53;35.80;39.90
62573;DHT22;48626;51.678;5.806;2022-08-21T13:05:34;36.20;39.90
62573;DHT22;48626;51.678;5.806;2022-08-21T13:08:10;36.80;42.70
62573;DHT22;48626;51.678;5.806;2022-08-21T13:10:37;36.60;36.90
62573;DHT22;48626;51.678;5.806;2022-08-21T13:13:08;36.80;37.70
62573;DHT22;48626;51.678;5.806;2022-08-21T13:15:38;37.30;38.00
62573;DHT22;48626;51.678;5.806;2022-08-21T13:18:06;37.20;35.20
62573;DHT22;48626;51.678;5.806;2022-08-21T13:20:37;37.40;36.60
62573;DHT22;48626;51.678;5.806;2022-08-21T13:23:07;37.60;37.40
62573;DHT22;48626;51.678;5.806;2022-08-21T13:25:41;37.60;33.80
62573;DHT22;48626;51.678;5.806;2022-08-21T13:28:10;37.40;35.80
62573;DHT22;48626;51.678;5.806;2022-08-21T13:30:42;37.50;35.60
62573;DHT22;48626;51.678;5.806;2022-08-21T13:33:10;37.40;33.40
62573;DHT22;48626;51.678;5.806;2022-08-21T13:35:51;37.20;33.20
62573;DHT22;48626;51.678;5.806;2022-08-21T13:38:20;36.70;34.00
62573;DHT22;48626;51.678;5.806;2022-08-21T13:40:51;36.00;35.30
62573;DHT22;48626;51.678;5.806;2022-08-21T13:43:21;35.30;33.50
62573;DHT22;48626;51.678;5.806;2022-08-21T13:45:52;34.50;34.50
62573;DHT22;48626;51.678;5.806;2022-08-21T13:48:20;33.70;36.00
62573;DHT22;48626;51.678;5.806;2022-08-21T13:50:46;33.00;37.50
62573;DHT22;48626;51.678;5.806;2022-08-21T13:56:05;32.00;38.60
62573;DHT22;48626;51.678;5.806;2022-08-21T13:58:54;32.20;39.20
62573;DHT22;48626;51.678;5.806;2022-08-21T14:04:05;31.60;41.00
62573;DHT22;48626;51.678;5.806;2022-08-21T14:06:37;31.40;43.40
62573;DHT22;48626;51.678;5.806;2022-08-21T14:09:20;31.20;41.80
62573;DHT22;48626;51.678;5.806;2022-08-21T14:11:50;30.90;43.50
62573;DHT22;48626;51.678;5.806;2022-08-21T14:16:54;30.90;40.70
62573;DHT22;48626;51.678;5.806;2022-08-21T14:19:26;31.50;44.80
62573;DHT22;48626;51.678;5.806;2022-08-21T14:21:52;31.60;42.80
62573;DHT22;48626;51.678;5.806;2022-08-21T14:26:57;33.10;41.80
62573;DHT22;48626;51.678;5.806;2022-08-21T14:29:28;33.70;40.40
62573;DHT22;48626;51.678;5.806;2022-08-21T14:31:59;34.10;38.60
62573;DHT22;48626;51.678;5.806;2022-08-21T14:34:33;33.90;37.50
62573;DHT22;48626;51.678;5.806;2022-08-21T14:36:58;33.70;37.50
62573;DHT22;48626;51.678;5.806;2022-08-21T14:39:24;33.90;36.30
62573;DHT22;48626;51.678;5.806;2022-08-21T14:41:52;34.70;36.20
62573;DHT22;48626;51.678;5.806;2022-08-21T14:44:18;34.20;34.80
62573;DHT22;48626;51.678;5.806;2022-08-21T14:46:44;34.40;34.10
62573;DHT22;48626;51.678;5.806;2022-08-21T14:49:11;34.10;33.70
62573;DHT22;48626;51.678;5.806;2022-08-21T14:51:37;33.70;34.10
62573;DHT22;48626;51.678;5.806;2022-08-21T14:54:05;33.30;38.00
62573;DHT22;48626;51.678;5.806;2022-08-21T14:56:31;32.60;37.30
62573;DHT22;48626;51.678;5.806;2022-08-21T14:59:02;32.10;35.50
62573;DHT22;48626;51.678;5.806;2022-08-21T15:01:28;31.80;39.50
62573;DHT22;48626;51.678;5.806;2022-08-21T15:03:54;31.60;37.00
62573;DHT22;48626;51.678;5.806;2022-08-21T15:06:20;31.40;37.30
62573;DHT22;48626;51.678;5.806;2022-08-21T15:08:47;31.40;37.10
62573;DHT22;48626;51.678;5.806;2022-08-21T15:11:17;31.00;38.40
62573;DHT22;48626;51.678;5.806;2022-08-21T15:13:43;30.50;39.70
62573;DHT22;48626;51.678;5.806;2022-08-21T15:16:10;30.20;40.10
62573;DHT22;48626;51.678;5.806;2022-08-21T15:18:36;29.90;42.10
62573;DHT22;48626;51.678;5.806;2022-08-21T15:21:02;29.70;43.60
62573;DHT22;48626;51.678;5.806;2022-08-21T15:23:28;29.60;43.60
62573;DHT22;48626;51.678;5.806;2022-08-21T15:25:54;29.40;43.30
62573;DHT22;48626;51.678;5.806;2022-08-21T15:28:20;29.20;41.90
62573;DHT22;48626;51.678;5.806;2022-08-21T15:30:47;29.10;42.20
62573;DHT22;48626;51.678;5.806;2022-08-21T15:33:13;29.00;42.60
62573;DHT22;48626;51.678;5.806;2022-08-21T15:35:38;28.90;44.00
62573;DHT22;48626;51.678;5.806;2022-08-21T15:38:05;28.70;43.30
62573;DHT22;48626;51.678;5.806;2022-08-21T15:40:31;28.70;44.30
62573;DHT22;48626;51.678;5.806;2022-08-21T15:43:02;28.70;42.40
62573;DHT22;48626;51.678;5.806;2022-08-21T15:45:28;28.80;42.40
62573;DHT22;48626;51.678;5.806;2022-08-21T15:47:55;28.60;41.00
62573;DHT22;48626;51.678;5.806;2022-08-21T15:50:22;28.40;42.70
62573;DHT22;48626;51.678;5.806;2022-08-21T15:52:49;28.30;42.20
62573;DHT22;48626;51.678;5.806;2022-08-21T15:55:15;28.00;43.20
62573;DHT22;48626;51.678;5.806;2022-08-21T15:57:46;28.00;45.40
62573;DHT22;48626;51.678;5.806;2022-08-21T16:00:18;28.00;47.50
62573;DHT22;48626;51.678;5.806;2022-08-21T16:02:46;27.90;47.30
62573;DHT22;48626;51.678;5.806;2022-08-21T16:05:14;27.80;46.50
62573;DHT22;48626;51.678;5.806;2022-08-21T16:07:42;27.80;47.50
62573;DHT22;48626;51.678;5.806;2022-08-21T16:10:08;27.80;48.20
62573;DHT22;48626;51.678;5.806;2022-08-21T16:12:37;27.80;47.00
62573;DHT22;48626;51.678;5.806;2022-08-21T16:15:07;27.60;45.00
62573;DHT22;48626;51.678;5.806;2022-08-21T16:17:35;27.60;46.80
62573;DHT22;48626;51.678;5.806;2022-08-21T16:20:04;27.50;46.80
62573;DHT22;48626;51.678;5.806;2022-08-21T16:22:31;27.60;47.20
62573;DHT22;48626;51.678;5.806;2022-08-21T16:24:57;27.40;46.40
62573;DHT22;48626;51.678;5.806;2022-08-21T16:27:22;27.20;44.30
62573;DHT22;48626;51.678;5.806;2022-08-21T16:29:48;27.10;45.50
62573;DHT22;48626;51.678;5.806;2022-08-21T16:32:15;27.10;45.20
62573;DHT22;48626;51.678;5.806;2022-08-21T16:34:45;27.10;46.30
62573;DHT22;48626;51.678;5.806;2022-08-21T16:37:12;27.20;45.30
62573;DHT22;48626;51.678;5.806;2022-08-21T16:39:38;27.30;45.60
62573;DHT22;48626;51.678;5.806;2022-08-21T16:42:04;27.40;46.50
62573;DHT22;48626;51.678;5.806;2022-08-21T16:44:31;27.30;46.80
62573;DHT22;48626;51.678;5.806;2022-08-21T16:46:59;27.20;46.40
62573;DHT22;48626;51.678;5.806;2022-08-21T16:49:25;26.80;46.70
62573;DHT22;48626;51.678;5.806;2022-08-21T16:51:50;26.70;46.30
62573;DHT22;48626;51.678;5.806;2022-08-21T16:54:16;26.50;49.50
62573;DHT22;48626;51.678;5.806;2022-08-21T16:56:42;26.50;48.30